Time;durP1;ratioP1;P1;durP2;ratioP2;P2;SDS_P1;SDS_P2;PMS_P1;PMS_P2;Temp;Humidity;BMP_temperature;BMP_pressure;BME280_temperature;BME280_humidity;BME280_pressure;Samples;Min_cycle;Max_cycle;Signal;HPM_P1;HPM_P2
2024/04/17 00:01:30;;;;;;;7.38;1.98;;;;;;;9.65;55.59;101243.03;5368531;26;97706;-88
2024/04/17 00:03:56;;;;;;;8.95;2.53;;;;;;;9.64;55.85;101245.59;5365496;26;98866;-88
2024/04/17 00:06:21;;;;;;;9.13;1.92;;;;;;;9.61;55.90;101251.63;5340822;26;94814;-88
2024/04/17 00:08:47;;;;;;;11.02;2.35;;;;;;;9.59;56.01;101245.50;5340660;26;94832;-88
2024/04/17 00:11:12;;;;;;;10.40;1.90;;;;;;;9.59;55.76;101245.50;5376868;26;98351;-88
2024/04/17 00:13:37;;;;;;;6.40;2.20;;;;;;;9.55;55.76;101233.25;5371323;26;112865;-88
2024/04/17 00:16:03;;;;;;;9.00;2.22;;;;;;;9.52;55.48;101235.81;5380638;26;94896;-88
2024/04/17 00:18:28;;;;;;;8.02;2.65;;;;;;;9.49;55.76;101236.59;5370755;26;94952;-88
2024/04/17 00:20:54;;;;;;;7.20;1.80;;;;;;;9.47;55.59;101233.09;5346478;26;98350;-88
2024/04/17 00:23:19;;;;;;;14.50;2.78;;;;;;;9.45;55.77;101239.13;5358020;26;98625;-88
2024/04/17 00:25:45;;;;;;;7.38;2.30;;;;;;;9.44;55.94;101237.34;5354698;26;94753;-88
2024/04/17 00:28:11;;;;;;;9.80;2.47;;;;;;;9.40;56.04;101244.19;5369320;26;94897;-89
2024/04/17 00:30:36;;;;;;;7.13;2.55;;;;;;;9.36;55.99;101239.78;5391148;26;97436;-88
2024/04/17 00:33:02;;;;;;;10.27;2.88;;;;;;;9.34;56.00;101246.66;5368994;26;100390;-88
2024/04/17 00:35:28;;;;;;;10.63;2.72;;;;;;;9.30;56.03;101247.41;5350242;26;94828;-88
2024/04/17 00:37:54;;;;;;;10.57;1.92;;;;;;;9.26;56.06;101240.38;5355861;26;95000;-88
2024/04/17 00:40:20;;;;;;;8.55;1.98;;;;;;;9.25;55.95;101249.94;5380014;26;98732;-88
2024/04/17 00:42:45;;;;;;;9.73;2.72;;;;;;;9.22;56.04;101234.22;5349102;26;97543;-88
2024/04/17 00:45:10;;;;;;;7.70;2.03;;;;;;;9.21;56.39;101242.84;5365741;26;94853;-88
2024/04/17 00:47:36;;;;;;;9.38;2.95;;;;;;;9.21;56.14;101237.66;5355819;26;94997;-88
2024/04/17 00:50:02;;;;;;;7.25;2.00;;;;;;;9.22;56.28;101235.97;5368120;26;98601;-88
2024/04/17 00:52:27;;;;;;;6.30;2.35;;;;;;;9.21;56.46;101231.59;5357760;26;95772;-88
2024/04/17 00:54:53;;;;;;;14.23;2.58;;;;;;;9.22;56.42;101236.81;5376901;26;94731;-88
2024/04/17 00:57:21;;;;;;;8.55;2.70;;;;;;;9.24;56.56;101236.88;5339599;26;95040;-88
2024/04/17 00:59:47;;;;;;;8.85;3.28;;;;;;;9.26;56.87;101243.00;5338784;26;97394;-88
2024/04/17 01:02:12;;;;;;;10.55;2.53;;;;;;;9.28;56.96;101234.34;5348535;26;98085;-88
2024/04/17 01:04:38;;;;;;;11.50;2.42;;;;;;;9.32;57.03;101241.41;5364826;26;94855;-89
2024/04/17 01:07:04;;;;;;;18.83;2.42;;;;;;;9.37;57.00;101241.50;5368383;26;94947;-88
2024/04/17 01:09:29;;;;;;;12.55;3.70;;;;;;;9.39;57.24;101239.81;5380045;26;94905;-88
2024/04/17 01:11:55;;;;;;;9.13;3.13;;;;;;;9.42;57.25;101239.91;5350617;26;95778;-88
2024/04/17 01:14:20;;;;;;;10.55;3.33;;;;;;;9.46;57.36;101244.31;5362953;26;94734;-88
2024/04/17 01:16:46;;;;;;;10.80;3.17;;;;;;;9.48;57.33;101240.06;5386629;26;94933;-88
2024/04/17 01:19:13;;;;;;;13.20;3.30;;;;;;;9.52;57.49;101249.69;5340343;26;98382;-88
2024/04/17 01:21:38;;;;;;;11.70;4.28;;;;;;;9.56;57.61;101248.03;5370722;26;96068;-88
2024/04/17 01:24:04;;;;;;;12.90;3.78;;;;;;;9.59;57.65;101240.31;5366417;26;94850;-88
2024/04/17 01:26:30;;;;;;;12.23;3.55;;;;;;;9.64;57.70;101236.09;5384019;26;94763;-88
2024/04/17 01:28:55;;;;;;;8.15;3.75;;;;;;;9.69;57.78;101242.25;5362480;26;98308;-89
2024/04/17 01:31:21;;;;;;;8.63;2.53;;;;;;;9.73;57.78;101238.00;5354957;26;95741;-88
2024/04/17 01:33:46;;;;;;;9.05;3.78;;;;;;;9.77;57.86;101233.72;5398099;26;94794;-88
2024/04/17 01:36:12;;;;;;;8.38;2.65;;;;;;;9.80;57.77;101231.19;5363964;26;95014;-89
2024/04/17 01:38:38;;;;;;;7.63;3.25;;;;;;;9.83;57.81;101223.47;5363840;26;97676;-89
2024/04/17 01:41:04;;;;;;;11.05;3.30;;;;;;;9.86;58.04;101216.59;5362979;26;95566;-89
2024/04/17 01:43:31;;;;;;;9.43;3.10;;;;;;;9.89;58.08;101219.25;5343334;26;94890;-89
2024/04/17 01:45:57;;;;;;;6.75;2.50;;;;;;;9.94;58.22;101223.69;5367428;26;94849;-89
2024/04/17 01:48:23;;;;;;;7.88;2.53;;;;;;;9.98;58.13;101223.78;5351869;26;97856;-89
2024/04/17 01:50:48;;;;;;;7.75;2.10;;;;;;;10.01;58.19;101222.97;5336702;26;97010;-89
2024/04/17 01:53:14;;;;;;;5.82;3.17;;;;;;;10.05;58.51;101215.25;5356858;26;94838;-89
2024/04/17 01:55:39;;;;;;;7.80;2.88;;;;;;;10.10;58.21;101218.81;5362844;26;95003;-89
2024/04/17 01:58:05;;;;;;;7.28;2.50;;;;;;;10.15;58.39;101216.31;5373302;26;95606;-89
2024/04/17 02:00:30;;;;;;;6.15;2.10;;;;;;;10.18;58.24;101216.38;5334425;26;99055;-89
2024/04/17 02:02:56;;;;;;;6.93;2.30;;;;;;;10.22;58.28;101215.56;5343437;26;94857;-88
2024/04/17 02:05:21;;;;;;;5.43;2.38;;;;;;;10.26;58.37;101206.97;5337431;26;94993;-89
2024/04/17 02:07:47;;;;;;;8.18;2.47;;;;;;;10.28;58.06;101213.13;5366738;26;95867;-89
2024/04/17 02:10:12;;;;;;;6.18;1.85;;;;;;;10.33;58.02;101204.53;5369526;26;95856;-89
2024/04/17 02:12:38;;;;;;;4.90;1.70;;;;;;;10.34;58.01;101211.47;5370341;26;94870;-89
2024/04/17 02:15:06;;;;;;;6.53;1.85;;;;;;;10.36;57.96;101208.06;5381674;26;94704;-89
2024/04/17 02:17:31;;;;;;;9.60;2.40;;;;;;;10.38;58.03;101208.97;5394429;26;98824;-88
2024/04/17 02:19:56;;;;;;;6.53;1.95;;;;;;;10.40;57.94;101206.41;5359143;26;95847;-89
2024/04/17 02:22:22;;;;;;;8.65;2.80;;;;;;;10.42;57.92;101216.00;5339877;26;95149;-88
2024/04/17 02:24:47;;;;;;;4.32;1.92;;;;;;;10.41;58.07;101214.25;5354412;26;94923;-88
2024/04/17 02:27:13;;;;;;;5.35;1.63;;;;;;;10.40;57.74;101217.69;5395621;26;95670;-89
2024/04/17 02:29:38;;;;;;;5.93;2.00;;;;;;;10.40;58.00;101211.63;5354168;26;95716;-89
2024/04/17 02:32:04;;;;;;;7.40;3.10;;;;;;;10.41;58.16;101216.88;5335291;26;94767;-88
2024/04/17 02:34:30;;;;;;;4.85;2.08;;;;;;;10.41;58.26;101227.28;5369880;26;94902;-88
2024/04/17 02:36:55;;;;;;;6.78;3.30;;;;;;;10.41;58.33;101223.78;5338233;26;98494;-89
2024/04/17 02:39:21;;;;;;;5.65;3.13;;;;;;;10.39;58.16;101218.56;5313129;26;97293;-89
2024/04/17 02:41:46;;;;;;;7.68;2.35;;;;;;;10.40;58.32;101222.91;5394693;26;94878;-89
2024/04/17 02:44:11;;;;;;;6.30;3.28;;;;;;;10.41;58.30;101218.56;5328831;26;95039;-89
2024/04/17 02:46:37;;;;;;;7.20;3.05;;;;;;;10.39;58.44;101215.97;5328410;26;97852;-89
2024/04/17 02:49:02;;;;;;;4.88;2.50;;;;;;;10.39;58.34;101230.69;5380802;26;95598;-89
2024/04/17 02:51:28;;;;;;;6.22;2.50;;;;;;;10.38;58.18;101219.41;5393541;26;94788;-89
2024/04/17 02:53:53;;;;;;;5.25;3.10;;;;;;;10.38;58.41;101224.63;5340268;26;94979;-88
2024/04/17 02:56:19;;;;;;;6.63;3.15;;;;;;;10.36;58.54;101218.50;5358417;26;97756;-88
2024/04/17 02:58:44;;;;;;;5.38;2.80;;;;;;;10.35;58.49;101214.13;5369711;26;99011;-89
2024/04/17 03:01:14;;;;;;;3.75;2.75;;;;;;;10.32;58.25;101214.09;5351333;26;94759;-89
2024/04/17 03:03:40;;;;;;;7.45;2.33;;;;;;;10.31;58.65;101209.72;5331260;26;95035;-88
2024/04/17 03:06:06;;;;;;;5.55;1.70;;;;;;;10.30;58.62;101213.13;5356747;26;98646;-88
2024/04/17 03:08:32;;;;;;;4.03;2.63;;;;;;;10.31;58.65;101207.09;5355247;26;95857;-88
2024/04/17 03:11:01;;;;;;;5.75;1.50;;;;;;;10.34;58.73;101211.47;5355061;26;94779;-89
2024/04/17 03:13:27;;;;;;;4.35;1.63;;;;;;;10.35;58.94;101215.84;5330335;26;94853;-89
2024/04/17 03:15:53;;;;;;;5.15;2.80;;;;;;;10.36;58.75;101215.91;5362799;26;98157;-89
2024/04/17 03:18:19;;;;;;;4.43;1.60;;;;;;;10.36;58.87;101221.09;5368460;26;97364;-89
2024/04/17 03:20:44;;;;;;;6.32;1.77;;;;;;;10.37;58.82;101222.84;5348050;26;94993;-88
2024/04/17 03:23:10;;;;;;;5.53;2.65;;;;;;;10.37;59.00;101233.28;5359944;26;94835;-89
2024/04/17 03:25:36;;;;;;;5.28;1.65;;;;;;;10.37;58.78;101229.78;5362689;26;95797;-89
2024/04/17 03:28:01;;;;;;;5.60;1.98;;;;;;;10.35;58.77;101231.50;5338095;26;95505;-89
2024/04/17 03:30:27;;;;;;;4.93;1.60;;;;;;;10.34;58.90;101240.16;5348184;26;94941;-89
2024/04/17 03:32:52;;;;;;;6.55;2.60;;;;;;;10.31;58.90;101241.00;5336019;26;95019;-89
2024/04/17 03:35:18;;;;;;;3.35;1.80;;;;;;;10.29;58.98;101240.94;5376113;26;98455;-90
2024/04/17 03:37:44;;;;;;;5.95;2.33;;;;;;;10.27;58.87;101249.56;5365891;26;98458;-89
2024/04/17 03:40:10;;;;;;;11.55;2.38;;;;;;;10.26;59.25;101247.81;5395621;26;94773;-89
2024/04/17 03:42:35;;;;;;;4.75;1.80;;;;;;;10.24;59.03;101246.91;5390215;26;95304;-90
2024/04/17 03:45:00;;;;;;;7.57;2.28;;;;;;;10.21;59.26;101244.22;5390990;26;97167;-90
2024/04/17 03:47:26;;;;;;;8.02;1.40;;;;;;;10.17;58.96;101250.22;5382245;26;106985;-90
2024/04/17 03:49:54;;;;;;;6.38;2.00;;;;;;;10.13;59.12;101244.06;5342935;26;94668;-91
2024/04/17 03:52:20;;;;;;;6.40;2.10;;;;;;;10.11;59.22;101248.38;5371877;26;94802;-91
2024/04/17 03:54:45;;;;;;;9.23;1.80;;;;;;;10.08;59.42;101240.50;5372241;26;95903;-91
2024/04/17 03:57:10;;;;;;;5.68;1.70;;;;;;;10.06;59.47;101240.44;5370374;26;98552;-90
2024/04/17 03:59:36;;;;;;;8.05;1.20;;;;;;;10.05;59.53;101249.13;5366020;26;94906;-90
2024/04/17 04:02:04;;;;;;;4.88;1.52;;;;;;;10.03;59.52;101250.81;5381960;26;95108;-91
2024/04/17 04:04:29;;;;;;;4.95;2.00;;;;;;;10.02;59.90;101254.28;5360116;26;94961;-90
2024/04/17 04:06:56;;;;;;;7.53;1.50;;;;;;;10.02;59.77;101248.19;5401396;26;98660;-90
2024/04/17 04:09:22;;;;;;;4.95;1.30;;;;;;;10.02;59.97;101251.66;5374556;26;94764;-91
2024/04/17 04:11:49;;;;;;;7.93;1.25;;;;;;;10.03;60.10;101255.16;5372907;26;94849;-90
2024/04/17 04:14:15;;;;;;;4.90;1.10;;;;;;;10.05;59.89;101261.25;5366685;26;98446;-90
2024/04/17 04:16:40;;;;;;;7.38;1.42;;;;;;;10.04;60.42;101254.31;5392283;26;98752;-91
2024/04/17 04:19:05;;;;;;;11.52;2.10;;;;;;;10.05;60.24;101256.97;5372010;26;94900;-90
2024/04/17 04:21:31;;;;;;;5.07;1.17;;;;;;;10.05;60.21;101262.16;5372549;26;94919;-89
2024/04/17 04:23:56;;;;;;;5.57;2.40;;;;;;;10.05;60.36;101254.34;5365369;26;95610;-91
2024/04/17 04:26:22;;;;;;;7.32;1.60;;;;;;;10.07;60.23;101255.25;5358637;26;95873;-90
2024/04/17 04:28:47;;;;;;;7.30;2.22;;;;;;;10.08;60.12;101258.72;5342573;26;94867;-89
2024/04/17 04:31:13;;;;;;;8.73;1.75;;;;;;;10.07;60.01;101257.88;5352463;26;94907;-90
2024/04/17 04:33:39;;;;;;;8.77;1.52;;;;;;;10.05;60.33;101262.16;5366927;26;98208;-90
2024/04/17 04:36:05;;;;;;;8.90;1.48;;;;;;;10.04;60.45;101260.41;5403069;26;97399;-90
2024/04/17 04:38:31;;;;;;;4.47;1.20;;;;;;;10.03;60.27;101258.63;5403486;26;94776;-90
2024/04/17 04:40:56;;;;;;;6.20;1.40;;;;;;;10.03;60.30;101269.06;5343407;26;94759;-91
2024/04/17 04:43:21;;;;;;;4.50;1.73;;;;;;;10.04;60.34;101264.75;5373552;26;95750;-89
2024/04/17 04:45:47;;;;;;;5.47;1.17;;;;;;;10.02;60.29;101269.03;5353365;26;97919;-90
2024/04/17 04:48:12;;;;;;;4.40;1.70;;;;;;;10.02;60.12;101261.22;5362725;26;94836;-90
2024/04/17 04:50:38;;;;;;;5.55;2.17;;;;;;;10.02;60.27;101261.22;5338690;26;94947;-90
2024/04/17 04:53:03;;;;;;;4.60;1.65;;;;;;;10.03;60.23;101257.75;5367627;26;95808;-90
2024/04/17 04:55:30;;;;;;;5.80;1.83;;;;;;;10.03;60.05;101257.75;5401220;26;97382;-90
2024/04/17 04:57:55;;;;;;;6.75;1.67;;;;;;;10.01;60.01;101254.25;5393123;26;94773;-90
2024/04/17 05:00:21;;;;;;;4.38;1.77;;;;;;;10.01;59.96;101260.31;5371844;26;94866;-89
2024/04/17 05:02:46;;;;;;;6.22;1.80;;;;;;;10.00;60.03;101258.59;5365439;26;95950;-90
2024/04/17 05:05:12;;;;;;;6.78;2.35;;;;;;;9.98;59.97;101257.66;5387700;26;98478;-90
2024/04/17 05:07:37;;;;;;;5.40;1.58;;;;;;;9.97;60.00;101268.94;5401733;26;94819;-89
2024/04/17 05:10:03;;;;;;;6.07;2.22;;;;;;;9.96;59.64;101263.69;5390335;26;94918;-89
2024/04/17 05:12:28;;;;;;;6.82;1.70;;;;;;;9.95;59.67;101269.75;5323185;26;98521;-85
2024/04/17 05:14:54;;;;;;;5.43;1.50;;;;;;;9.91;59.66;101264.47;5378566;26;95845;-88
2024/04/17 05:17:19;;;;;;;7.88;1.63;;;;;;;9.91;59.67;101274.03;5380872;26;94859;-87
2024/04/17 05:19:44;;;;;;;6.30;1.55;;;;;;;9.89;59.73;101267.88;5380887;26;95035;-90
2024/04/17 05:22:10;;;;;;;6.32;1.20;;;;;;;9.88;59.77;101267.00;5388560;26;98641;-87
2024/04/17 05:24:35;;;;;;;4.55;1.13;;;;;;;9.87;59.61;101272.16;5359986;26;95782;-88
2024/04/17 05:27:01;;;;;;;4.78;1.45;;;;;;;9.84;59.77;101272.09;5391174;26;94889;-88
2024/04/17 05:29:34;;;;;;;5.05;2.08;;;;;;;9.80;59.79;101270.28;5364332;26;94982;-87
2024/04/17 05:31:59;;;;;;;8.15;1.80;;;;;;;9.78;59.82;101267.63;5367864;26;95868;-86
2024/04/17 05:34:24;;;;;;;30.42;2.03;;;;;;;9.77;60.05;101263.28;5332435;26;94939;-85
2024/04/17 05:36:50;;;;;;;6.65;1.75;;;;;;;9.77;60.24;101270.19;5334506;26;94924;-85
2024/04/17 05:39:15;;;;;;;4.20;1.50;;;;;;;9.77;60.17;101263.28;5332377;26;95222;-84
2024/04/17 05:41:41;;;;;;;11.93;2.10;;;;;;;9.77;60.24;101262.38;5367944;26;97825;-83
2024/04/17 05:44:06;;;;;;;6.55;1.63;;;;;;;9.77;60.37;101265.00;5353735;26;95958;-84
2024/04/17 05:46:32;;;;;;;7.75;1.63;;;;;;;9.78;60.21;101262.41;5386969;26;94773;-84
2024/04/17 05:48:57;;;;;;;6.80;1.80;;;;;;;9.80;60.43;101257.25;5386561;26;94909;-84
2024/04/17 05:51:23;;;;;;;6.72;1.60;;;;;;;9.83;60.11;101259.94;5359808;26;95829;-85
2024/04/17 05:53:48;;;;;;;6.93;1.80;;;;;;;9.85;60.56;101263.44;5347449;26;95768;-84
2024/04/17 05:56:14;;;;;;;7.60;2.40;;;;;;;9.88;60.38;101258.31;5386935;26;94898;-85
2024/04/17 05:58:40;;;;;;;6.47;2.50;;;;;;;9.93;60.52;101267.13;5355797;26;94908;-86
2024/04/17 06:01:06;;;;;;;6.97;2.17;;;;;;;9.95;60.85;101256.72;5357715;26;98305;-85
2024/04/17 06:03:31;;;;;;;10.73;2.30;;;;;;;9.98;60.61;101255.06;5349716;26;97733;-85
2024/04/17 06:05:56;;;;;;;8.30;2.30;;;;;;;10.03;60.77;101262.97;5351012;26;95652;-85
2024/04/17 06:08:22;;;;;;;12.98;2.90;;;;;;;10.07;61.07;101256.97;5375121;26;94835;-85
2024/04/17 06:10:47;;;;;;;10.70;2.60;;;;;;;10.10;60.89;101262.25;5359884;26;98448;-89
2024/04/17 06:13:13;;;;;;;10.45;3.33;;;;;;;10.10;60.86;101257.03;5370432;26;95578;-83
2024/04/17 06:15:39;;;;;;;6.28;2.88;;;;;;;10.14;60.84;101263.19;5331547;26;94898;-86
2024/04/17 06:18:06;;;;;;;9.35;2.40;;;;;;;10.21;61.24;101267.69;5347222;26;95017;-85
2024/04/17 06:20:31;;;;;;;9.88;2.20;;;;;;;10.27;61.21;101262.63;5326256;26;98671;-86
2024/04/17 06:22:57;;;;;;;8.40;2.50;;;;;;;10.33;61.40;101265.38;5349669;26;95953;-85
2024/04/17 06:25:22;;;;;;;8.23;2.22;;;;;;;10.45;62.31;101262.13;5363002;26;94886;-85
2024/04/17 06:27:47;;;;;;;11.68;2.80;;;;;;;10.66;63.50;101266.91;5390440;26;95216;-84
2024/04/17 06:30:13;;;;;;;13.00;2.13;;;;;;;10.99;64.48;101264.00;5387383;26;95778;-81
2024/04/17 06:32:39;;;;;;;11.52;2.35;;;;;;;11.37;64.27;101266.41;5340943;26;95615;-81
2024/04/17 06:35:04;;;;;;;8.55;1.88;;;;;;;11.69;64.11;101259.88;5357448;26;95909;-82
2024/04/17 06:37:30;;;;;;;13.82;3.30;;;;;;;11.99;63.20;101260.34;5325833;26;94994;-81
2024/04/17 06:39:55;;;;;;;10.38;2.60;;;;;;;12.28;62.97;101254.63;5339387;26;95694;-81
2024/04/17 06:42:21;;;;;;;10.75;2.17;;;;;;;12.47;61.81;101258.31;5339911;26;95960;-81
2024/04/17 06:44:46;;;;;;;12.93;2.50;;;;;;;12.61;60.89;101255.00;5346469;26;94937;-82
2024/04/17 06:47:12;;;;;;;10.63;2.75;;;;;;;12.68;60.21;101255.06;5351215;26;94948;-82
2024/04/17 06:49:37;;;;;;;9.65;1.95;;;;;;;12.70;59.83;101249.84;5359353;26;97627;-80
2024/04/17 06:52:03;;;;;;;14.45;2.50;;;;;;;12.71;59.52;101257.72;5349201;26;98695;-82
2024/04/17 06:54:28;;;;;;;14.18;2.22;;;;;;;12.70;58.99;101249.84;5344866;26;94860;-83
2024/04/17 06:56:54;;;;;;;10.43;2.67;;;;;;;12.66;59.24;101248.94;5373931;26;95101;-84
2024/04/17 06:59:19;;;;;;;8.30;2.23;;;;;;;12.65;59.26;101252.41;5341010;26;95662;-82
2024/04/17 07:01:45;;;;;;;14.07;2.97;;;;;;;12.65;59.00;101252.41;5384553;26;95503;-83
2024/04/17 07:04:10;;;;;;;9.20;2.78;;;;;;;12.68;59.21;101248.97;5362011;26;94940;-82
2024/04/17 07:06:36;;;;;;;9.35;2.00;;;;;;;12.70;58.44;101250.72;5313591;26;95605;-83
2024/04/17 07:09:01;;;;;;;12.05;2.08;;;;;;;12.68;58.26;101254.19;5353622;26;97374;-83
2024/04/17 07:11:27;;;;;;;11.05;2.00;;;;;;;12.69;58.62;101256.81;5355079;26;98490;-83
2024/04/17 07:13:53;;;;;;;9.52;1.85;;;;;;;12.73;58.68;101255.13;5374952;26;94866;-85
2024/04/17 07:16:18;;;;;;;11.93;2.00;;;;;;;12.76;58.51;101252.50;5367614;26;94895;-82
2024/04/17 07:18:45;;;;;;;7.90;2.28;;;;;;;12.82;58.44;101255.22;5349282;26;95781;-83
2024/04/17 07:21:11;;;;;;;10.55;2.35;;;;;;;12.92;58.69;101250.91;5314693;26;98521;-82
2024/04/17 07:23:38;;;;;;;15.00;2.40;;;;;;;13.06;59.27;101251.06;5378306;26;94925;-82
2024/04/17 07:26:04;;;;;;;12.20;2.05;;;;;;;13.26;59.63;101252.13;5338045;26;94954;-83
2024/04/17 07:28:29;;;;;;;8.27;2.03;;;;;;;13.50;59.82;101259.31;5346511;26;97624;-83
2024/04/17 07:30:55;;;;;;;9.25;2.38;;;;;;;13.71;58.98;101258.56;5392041;26;95600;-82
2024/04/17 07:33:20;;;;;;;12.80;2.13;;;;;;;13.90;59.18;101258.66;5376310;26;95114;-83
2024/04/17 07:35:46;;;;;;;10.05;1.80;;;;;;;14.11;58.98;101250.03;5360803;26;95036;-83
2024/04/17 07:38:12;;;;;;;10.35;2.03;;;;;;;14.36;58.78;101247.50;5328859;26;98578;-83
2024/04/17 07:40:37;;;;;;;8.55;2.47;;;;;;;14.57;57.83;101250.19;5378649;26;95947;-83
2024/04/17 07:43:03;;;;;;;8.07;1.40;;;;;;;14.79;56.82;101245.03;5360768;26;94770;-83
2024/04/17 07:45:28;;;;;;;10.40;1.90;;;;;;;14.97;56.58;101239.81;5350789;26;95808;-83
2024/04/17 07:47:54;;;;;;;8.50;1.23;;;;;;;15.17;56.78;101236.31;5354126;26;97449;-83
2024/04/17 07:50:20;;;;;;;6.43;1.25;;;;;;;15.40;55.99;101236.25;5359516;26;98051;-83
2024/04/17 07:52:45;;;;;;;9.65;1.73;;;;;;;15.59;56.06;101234.50;5360631;26;94797;-83
2024/04/17 07:55:10;;;;;;;8.02;2.25;;;;;;;15.79;55.69;101231.84;5358070;26;95005;-83
2024/04/17 07:57:36;;;;;;;11.73;1.48;;;;;;;15.80;54.59;101234.47;5346650;26;96887;-83
2024/04/17 08:00:02;;;;;;;8.73;1.90;;;;;;;15.64;52.64;101232.75;5358251;26;95924;-83
2024/04/17 08:02:38;;;;;;;5.45;1.60;;;;;;;15.35;51.41;101244.19;5343594;26;94872;-84
2024/04/17 08:05:03;;;;;;;5.35;1.65;;;;;;;14.97;50.77;101260.81;5364085;26;95041;-82
2024/04/17 08:07:29;;;;;;;3.20;1.02;;;;;;;14.58;50.78;101256.34;5355078;26;95796;-83
2024/04/17 08:09:54;;;;;;;3.60;0.93;;;;;;;14.22;50.76;101264.06;5354289;26;97799;-82
2024/04/17 08:12:20;;;;;;;4.18;0.88;;;;;;;13.92;51.83;101266.53;5336447;26;94968;-82
2024/04/17 08:14:45;;;;;;;2.83;0.70;;;;;;;13.64;51.13;101264.66;5386883;26;95069;-83
2024/04/17 08:17:10;;;;;;;2.28;1.35;;;;;;;13.32;51.44;101267.91;5381770;26;98234;-82
2024/04/17 08:19:36;;;;;;;2.92;0.98;;;;;;;13.05;51.93;101265.03;5322541;26;97664;-82
2024/04/17 08:22:02;;;;;;;2.58;1.25;;;;;;;12.82;51.98;101267.44;5361601;26;94888;-82
2024/04/17 08:24:27;;;;;;;4.15;0.88;;;;;;;12.61;52.95;101255.84;5358299;26;94999;-82
2024/04/17 08:26:53;;;;;;;3.88;1.05;;;;;;;12.44;52.74;101253.06;5348548;26;95657;-83
2024/04/17 08:29:18;;;;;;;5.45;0.80;;;;;;;12.33;53.04;101246.81;5363501;26;95506;-82
2024/04/17 08:31:45;;;;;;;3.90;0.70;;;;;;;12.24;53.87;101251.94;5354356;26;94952;-82
2024/04/17 08:34:10;;;;;;;3.53;0.90;;;;;;;12.19;54.03;101251.88;5361016;26;95166;-82
2024/04/17 08:36:36;;;;;;;3.38;0.90;;;;;;;12.19;54.38;101250.16;5383051;26;95554;-83
2024/04/17 08:39:02;;;;;;;5.57;1.50;;;;;;;12.24;54.96;101239.72;5358094;26;95561;-83
2024/04/17 08:41:30;;;;;;;2.40;1.30;;;;;;;12.45;56.34;101244.34;5387267;26;94826;-83
2024/04/17 08:44:03;;;;;;;3.40;1.35;;;;;;;13.10;57.84;101244.97;5351932;26;95151;-83
2024/04/17 08:46:30;;;;;;;3.17;1.20;;;;;;;14.26;58.55;101237.00;5360336;26;97694;-83
2024/04/17 08:48:56;;;;;;;4.90;0.90;;;;;;;15.48;57.75;101231.88;5363351;26;98378;-83
2024/04/17 08:51:24;;;;;;;2.92;0.80;;;;;;;16.37;54.90;101222.84;5331247;26;94918;-84
2024/04/17 08:53:52;;;;;;;3.28;0.85;;;;;;;17.05;53.62;101222.44;5358344;26;94918;-82
2024/04/17 08:56:19;;;;;;;2.80;0.93;;;;;;;17.63;52.46;101213.06;5344475;26;98692;-83
2024/04/17 08:58:45;;;;;;;3.10;0.73;;;;;;;18.05;51.84;101213.50;5362127;26;95901;-83
2024/04/17 09:01:12;;;;;;;3.70;0.60;;;;;;;18.33;50.01;101213.16;5357154;26;94840;-83
2024/04/17 09:03:42;;;;;;;2.58;0.75;;;;;;;18.43;48.26;101212.13;5359660;26;94917;-83
2024/04/17 09:06:08;;;;;;;2.13;1.20;;;;;;;18.66;48.39;101219.69;5348934;26;95691;-83
2024/04/17 09:08:33;;;;;;;4.13;0.73;;;;;;;18.95;47.17;101213.16;5370483;26;98454;-84
2024/04/17 09:10:59;;;;;;;5.00;1.00;;;;;;;19.12;45.80;101213.72;5376902;26;94898;-84
2024/04/17 09:13:24;;;;;;;4.18;0.77;;;;;;;19.21;45.83;101223.25;5393107;26;94959;-83
2024/04/17 09:15:50;;;;;;;3.97;1.38;;;;;;;19.32;45.85;101217.78;5337917;26;97792;-84
2024/04/17 09:18:24;;;;;;;4.20;0.93;;;;;;;19.54;45.10;101215.66;5352736;26;94848;-83
2024/04/17 09:20:49;;;;;;;3.03;0.82;;;;;;;19.80;44.99;101209.84;5321818;26;94864;-83
2024/04/17 09:23:14;;;;;;;2.13;0.60;;;;;;;19.63;43.70;101206.66;5364278;26;95144;-84
2024/04/17 09:25:40;;;;;;;4.72;1.70;;;;;;;19.21;43.22;101205.66;5388222;26;95799;-84
2024/04/17 09:28:12;;;;;;;4.60;0.85;;;;;;;18.88;42.68;101211.50;5361071;26;98727;-84
2024/04/17 09:30:40;;;;;;;4.43;0.80;;;;;;;18.44;41.15;101198.03;5359825;26;94955;-84
2024/04/17 09:33:08;;;;;;;5.32;0.90;;;;;;;17.95;41.24;101196.94;5359306;26;94988;-84
2024/04/17 09:35:36;;;;;;;4.97;1.00;;;;;;;17.55;41.33;101199.97;5360637;26;98777;-84
2024/04/17 09:38:02;;;;;;;3.63;1.40;;;;;;;17.23;42.87;101203.81;5354373;26;97732;-83
2024/04/17 09:40:28;;;;;;;2.60;1.00;;;;;;;17.05;43.30;101206.63;5355389;26;95085;-84
2024/04/17 09:42:56;;;;;;;5.28;1.30;;;;;;;16.82;42.82;101197.09;5353017;26;95051;-84
2024/04/17 09:45:24;;;;;;;4.10;1.38;;;;;;;16.55;42.92;101195.53;5384818;26;95453;-84
2024/04/17 09:47:53;;;;;;;3.60;1.17;;;;;;;16.40;43.67;101196.53;5356806;26;96020;-84
2024/04/17 09:50:25;;;;;;;6.32;1.10;;;;;;;16.39;43.85;101189.50;5336844;26;94811;-84
2024/04/17 09:52:53;;;;;;;3.20;1.08;;;;;;;16.35;43.58;101196.53;5361207;26;94930;-84
2024/04/17 09:55:21;;;;;;;5.28;1.33;;;;;;;16.22;43.18;101194.88;5384989;26;97892;-84
2024/04/17 09:57:50;;;;;;;4.05;1.10;;;;;;;16.08;43.23;101192.28;5366357;26;95376;-84
2024/04/17 10:00:16;;;;;;;4.30;0.77;;;;;;;15.95;43.31;101195.84;5342560;26;94851;-84
2024/04/17 10:02:43;;;;;;;5.65;1.48;;;;;;;15.78;43.00;101199.41;5380193;26;94850;-84
2024/04/17 10:05:10;;;;;;;2.42;0.82;;;;;;;15.60;43.14;101197.69;5341919;26;95554;-84
2024/04/17 10:07:38;;;;;;;4.50;0.90;;;;;;;15.47;43.41;101200.34;5363682;26;96626;-84
2024/04/17 10:10:05;;;;;;;5.97;0.95;;;;;;;15.38;44.22;101201.22;5385267;26;94920;-84
2024/04/17 10:12:32;;;;;;;2.78;1.27;;;;;;;15.29;43.93;101199.47;5360447;26;95144;-84
2024/04/17 10:14:58;;;;;;;6.35;1.52;;;;;;;15.18;43.74;101212.63;5367779;26;95970;-86
2024/04/17 10:17:24;;;;;;;5.63;1.02;;;;;;;15.05;43.84;101208.28;5353179;26;95781;-87
2024/04/17 10:19:50;;;;;;;2.40;0.77;;;;;;;14.95;44.41;101202.13;5377467;26;94919;-84
2024/04/17 10:22:16;;;;;;;3.30;0.73;;;;;;;14.89;44.34;101203.91;5331428;26;94997;-87
2024/04/17 10:24:45;;;;;;;2.65;0.73;;;;;;;14.77;43.64;101212.63;5329536;26;95898;-86
2024/04/17 10:27:17;;;;;;;2.92;1.35;;;;;;;14.64;43.84;101202.13;5353439;26;97859;-86
2024/04/17 10:29:42;;;;;;;3.67;1.30;;;;;;;14.60;44.27;101204.75;5361097;26;94766;-85
2024/04/17 10:32:13;;;;;;;4.47;1.10;;;;;;;14.54;44.25;101210.81;5349131;26;95066;-87
2024/04/17 10:34:49;;;;;;;5.32;0.93;;;;;;;14.48;44.68;101208.19;5339010;26;98608;-86
2024/04/17 10:37:18;;;;;;;3.13;1.35;;;;;;;14.52;44.83;101206.44;5335016;26;96046;-86
2024/04/17 10:39:45;;;;;;;4.45;1.25;;;;;;;14.51;44.45;101202.94;5333400;26;94876;-87
2024/04/17 10:42:15;;;;;;;1.77;1.10;;;;;;;14.44;44.40;101203.81;5358381;26;94944;-87
2024/04/17 10:44:59;;;;;;;4.55;1.55;;;;;;;14.34;44.72;101197.66;5390632;26;96711;-86
2024/04/17 10:47:26;;;;;;;3.83;1.10;;;;;;;14.34;44.55;101205.50;5371370;26;95442;-87
2024/04/17 10:50:00;;;;;;;4.07;1.00;;;;;;;14.28;44.22;101221.25;5336877;26;94764;-87
2024/04/17 10:52:27;;;;;;;7.05;1.15;;;;;;;14.14;44.22;101233.44;5340613;26;94908;-87
2024/04/17 10:54:57;;;;;;;2.85;1.52;;;;;;;13.86;44.29;101252.53;5349129;26;97789;-89
2024/04/17 10:57:22;;;;;;;4.68;1.17;;;;;;;13.55;44.18;101261.06;5369136;26;95478;-90
2024/04/17 10:59:51;;;;;;;5.25;1.13;;;;;;;13.12;44.58;101272.09;5339947;26;94822;-88
2024/04/17 11:02:17;;;;;;;4.97;1.55;;;;;;;12.69;44.96;101280.38;5369836;26;94908;-90
2024/04/17 11:04:43;;;;;;;3.30;1.58;;;;;;;12.27;44.99;101280.75;5359913;26;98903;-90
2024/04/17 11:07:09;;;;;;;5.50;1.23;;;;;;;11.86;45.48;101291.50;5365280;26;98685;-88
2024/04/17 11:09:35;;;;;;;3.55;1.10;;;;;;;11.48;45.92;101297.91;5380674;26;94850;-88
2024/04/17 11:12:00;;;;;;;3.45;1.27;;;;;;;11.12;46.56;101298.16;5365758;26;95056;-87
2024/04/17 11:14:26;;;;;;;2.92;1.38;;;;;;;10.83;47.24;101295.91;5335311;26;97288;-92
2024/04/17 11:16:52;;;;;;;1.85;1.13;;;;;;;10.62;47.97;101309.41;5370235;26;97625;-88
2024/04/17 11:19:18;;;;;;;2.83;1.90;;;;;;;10.45;48.48;101315.16;5342719;26;94955;-88
2024/04/17 11:21:44;;;;;;;2.63;1.50;;;;;;;10.29;48.85;101315.66;5350319;26;94903;-88